Time;durP1;ratioP1;P1;durP2;ratioP2;P2;SDS_P1;SDS_P2;PMS_P1;PMS_P2;Temp;Humidity;BMP_temperature;BMP_pressure;BME280_temperature;BME280_humidity;BME280_pressure;Samples;Min_cycle;Max_cycle;Signal;HPM_P1;HPM_P2
2022/07/03 00:01:57;;;;;;;21.55;19.00;;;;;;;17.77;76.96;97747.80;1775937;79;25812;-80
2022/07/03 00:04:24;;;;;;;22.17;19.90;;;;;;;17.78;76.97;97748.09;1733959;80;28051;-80
2022/07/03 00:06:53;;;;;;;21.80;19.30;;;;;;;17.80;76.93;97747.31;1744648;79;25698;-80
2022/07/03 00:09:19;;;;;;;22.73;20.35;;;;;;;17.77;76.97;97745.07;1758726;79;25883;-80
2022/07/03 00:11:46;;;;;;;23.73;18.60;;;;;;;17.73;77.07;97732.48;1766721;80;25735;-80
2022/07/03 00:14:13;;;;;;;20.52;18.40;;;;;;;17.68;77.09;97737.02;1772939;80;25211;-80
2022/07/03 00:16:39;;;;;;;20.02;17.82;;;;;;;17.66;77.16;97737.27;1769537;80;27504;-80
2022/07/03 00:19:07;;;;;;;21.17;17.75;;;;;;;17.64;77.20;97737.50;1748055;80;25872;-80
2022/07/03 00:21:56;;;;;;;20.75;16.80;;;;;;;17.64;77.21;97730.69;1738424;79;26343;-80
2022/07/03 00:24:33;;;;;;;25.37;16.32;;;;;;;17.62;77.19;97731.46;1751514;80;25986;-80
2022/07/03 00:27:01;;;;;;;18.25;16.40;;;;;;;17.60;77.22;97734.97;1746102;80;25787;-79
2022/07/03 00:29:36;;;;;;;18.17;16.37;;;;;;;17.58;77.23;97728.93;1754652;79;27577;-80
2022/07/03 00:32:07;;;;;;;34.50;17.73;;;;;;;17.57;77.27;97738.73;1756017;79;25914;-79
2022/07/03 00:34:34;;;;;;;23.18;17.32;;;;;;;17.53;77.37;97737.02;1712624;82;25829;-80
2022/07/03 00:37:01;;;;;;;19.45;17.05;;;;;;;17.54;77.37;97740.58;1677868;85;25770;-80
2022/07/03 00:39:29;;;;;;;19.82;16.95;;;;;;;17.53;77.38;97743.02;1712453;81;25776;-79
2022/07/03 00:42:05;;;;;;;20.95;17.00;;;;;;;17.54;77.49;97742.77;1677640;85;27570;-80
2022/07/03 00:44:37;;;;;;;18.67;16.70;;;;;;;17.54;77.51;97738.67;1709747;82;25872;-79
2022/07/03 00:47:05;;;;;;;18.50;16.70;;;;;;;17.54;77.53;97744.14;1709102;82;26904;-80
2022/07/03 00:49:34;;;;;;;18.12;16.32;;;;;;;17.52;77.59;97732.63;1711227;82;26531;-80
2022/07/03 00:52:06;;;;;;;17.40;15.65;;;;;;;17.52;77.60;97727.17;1677777;85;25972;-80
2022/07/03 00:54:34;;;;;;;19.62;17.55;;;;;;;17.51;77.60;97728.25;1678137;85;27361;-80
2022/07/03 00:57:03;;;;;;;18.85;16.95;;;;;;;17.51;77.67;97725.52;1649119;86;25853;-80
2022/07/03 00:59:30;;;;;;;18.95;16.82;;;;;;;17.50;77.66;97718.44;1677398;85;25856;-80
2022/07/03 01:02:04;;;;;;;18.77;16.77;;;;;;;17.52;77.61;97715.43;1647614;85;25985;-81
2022/07/03 01:04:52;;;;;;;19.98;16.82;;;;;;;17.49;77.68;97711.31;1647750;85;25887;-79
2022/07/03 01:07:42;;;;;;;19.85;17.27;;;;;;;17.46;77.82;97709.08;1671448;85;27601;-79
2022/07/03 01:10:34;;;;;;;21.02;17.35;;;;;;;17.43;77.94;97701.38;1645078;86;25699;-79
2022/07/03 01:13:08;;;;;;;19.67;17.23;;;;;;;17.41;77.95;97699.43;1562980;91;25902;-80
2022/07/03 01:15:56;;;;;;;19.50;17.50;;;;;;;17.39;78.04;97697.48;1556516;91;26568;-80
2022/07/03 01:18:55;;;;;;;19.10;16.82;;;;;;;17.36;78.09;97693.91;1557554;89;25637;-80
2022/07/03 01:21:44;;;;;;;20.35;17.92;;;;;;;17.34;78.18;97689.23;1562980;91;27434;-80
2022/07/03 01:24:55;;;;;;;21.55;18.07;;;;;;;17.37;78.20;97685.19;1558148;91;26629;-80
2022/07/03 01:27:35;;;;;;;21.02;18.77;;;;;;;17.39;78.12;97681.11;1557930;91;25697;-80
2022/07/03 01:30:10;;;;;;;22.25;18.37;;;;;;;17.39;78.09;97678.95;1550693;91;25940;-79
2022/07/03 01:32:46;;;;;;;20.57;18.27;;;;;;;17.40;78.08;97673.22;1552033;91;25900;-80
2022/07/03 01:35:17;;;;;;;20.70;18.27;;;;;;;17.39;77.90;97674.28;1557059;91;27622;-79
2022/07/03 01:37:46;;;;;;;19.63;17.57;;;;;;;17.40;77.78;97671.84;1552503;89;25908;-79
2022/07/03 01:40:14;;;;;;;20.50;17.77;;;;;;;17.41;77.71;97666.69;1575542;90;25875;-79
2022/07/03 01:42:42;;;;;;;19.70;17.62;;;;;;;17.42;77.70;97668.34;1615253;86;25995;-79
2022/07/03 01:45:11;;;;;;;19.48;17.48;;;;;;;17.40;77.67;97669.12;1611179;87;25974;-79
2022/07/03 01:47:42;;;;;;;17.42;15.63;;;;;;;17.41;77.68;97676.23;1597028;88;27465;-79
2022/07/03 01:50:14;;;;;;;17.87;15.98;;;;;;;17.42;77.69;97677.06;1626620;86;25867;-79
2022/07/03 01:52:43;;;;;;;15.45;13.93;;;;;;;17.39;77.55;97672.92;1625200;86;26065;-80
2022/07/03 01:55:12;;;;;;;16.60;14.28;;;;;;;17.37;77.31;97674.27;1626481;87;25823;-79
2022/07/03 01:57:48;;;;;;;14.00;12.60;;;;;;;17.34;77.21;97672.86;1627390;86;25318;-78
2022/07/03 02:00:20;;;;;;;14.58;13.08;;;;;;;17.34;77.22;97670.66;1612049;87;27416;-79
2022/07/03 02:03:00;;;;;;;12.90;11.43;;;;;;;17.33;77.14;97657.56;1588498;88;25805;-79
2022/07/03 02:05:40;;;;;;;12.25;10.35;;;;;;;17.33;77.09;97663.02;1558299;89;25874;-78
2022/07/03 02:08:32;;;;;;;11.40;10.30;;;;;;;17.35;77.02;97663.60;1580204;89;26342;-79
2022/07/03 02:11:13;;;;;;;13.22;11.90;;;;;;;17.38;77.02;97664.48;1652175;85;25727;-79
2022/07/03 02:14:07;;;;;;;11.63;10.53;;;;;;;17.39;76.93;97663.38;1627660;86;27461;-79
2022/07/03 02:16:57;;;;;;;10.40;9.40;;;;;;;17.39;76.84;97650.30;1620977;86;25900;-79
2022/07/03 02:19:42;;;;;;;9.65;8.75;;;;;;;17.35;76.70;97659.51;1651619;86;25994;-79
2022/07/03 02:22:09;;;;;;;10.85;9.25;;;;;;;17.31;76.59;97659.70;1587212;88;26097;-78
2022/07/03 02:24:41;;;;;;;11.10;9.90;;;;;;;17.30;76.56;97656.68;1590502;88;25829;-77
2022/07/03 02:27:19;;;;;;;9.58;8.55;;;;;;;17.27;76.55;97655.27;1544110;91;28145;-78
2022/07/03 02:29:53;;;;;;;8.38;7.45;;;;;;;17.25;76.49;97652.52;1544292;91;25858;-78
2022/07/03 02:32:23;;;;;;;8.58;7.75;;;;;;;17.29;76.40;97653.66;1541293;90;25902;-79
2022/07/03 02:35:04;;;;;;;8.48;7.67;;;;;;;17.32;76.25;97653.71;1540397;91;26594;-79
2022/07/03 02:37:53;;;;;;;8.95;8.15;;;;;;;17.33;76.18;97652.64;1538100;90;25988;-77
2022/07/03 02:40:54;;;;;;;11.05;9.10;;;;;;;17.33;76.12;97654.83;1552929;91;27417;-78
2022/07/03 02:43:44;;;;;;;10.00;9.00;;;;;;;17.34;76.15;97658.39;1572974;88;25884;-78
2022/07/03 02:49:27;;;;;;;12.03;10.82;;;;;;;17.38;76.17;97651.37;1595355;88;26414;-80
2022/07/03 02:52:04;;;;;;;12.25;10.98;;;;;;;17.40;76.15;97650.55;1580410;88;25531;-79
2022/07/03 02:54:36;;;;;;;13.40;12.00;;;;;;;17.43;76.23;97652.26;1497804;95;27511;-80
2022/07/03 02:57:07;;;;;;;14.05;11.28;;;;;;;17.44;76.21;97653.91;1483758;95;25885;-79
2022/07/03 02:59:55;;;;;;;12.33;11.10;;;;;;;17.45;76.18;97650.65;1485489;94;25872;-78
2022/07/03 03:02:58;;;;;;;13.05;11.53;;;;;;;17.43;76.21;97654.16;1437961;98;25895;-79
2022/07/03 03:05:46;;;;;;;12.30;11.00;;;;;;;17.41;76.22;97646.22;1437839;97;25715;-79
2022/07/03 03:08:30;;;;;;;11.57;10.45;;;;;;;17.43;76.24;97641.34;1400568;99;27482;-80
2022/07/03 03:11:08;;;;;;;14.20;10.23;;;;;;;17.43;76.21;97641.88;1412356;100;25886;-80
2022/07/03 03:13:36;;;;;;;12.35;11.10;;;;;;;17.45;76.21;97647.38;1399437;100;25837;-79
2022/07/03 03:16:12;;;;;;;11.83;10.45;;;;;;;17.47;76.23;97645.23;1405125;99;25973;-79
2022/07/03 03:18:40;;;;;;;10.35;8.93;;;;;;;17.50;76.18;97648.02;1401408;98;26592;-79
2022/07/03 03:21:10;;;;;;;9.55;8.65;;;;;;;17.52;76.19;97646.66;1417489;99;27499;-79
2022/07/03 03:23:49;;;;;;;11.48;9.45;;;;;;;17.54;76.14;97651.34;1427046;95;25843;-79
2022/07/03 03:26:28;;;;;;;10.15;8.70;;;;;;;17.57;76.05;97649.48;1485063;95;26174;-79
2022/07/03 03:28:55;;;;;;;9.58;8.65;;;;;;;17.56;76.09;97653.28;1476241;95;26779;-80
2022/07/03 03:31:22;;;;;;;9.45;8.38;;;;;;;17.57;76.09;97661.77;1484071;94;26155;-79
2022/07/03 03:33:50;;;;;;;9.30;8.40;;;;;;;17.57;76.06;97656.30;1504086;94;27512;-80
2022/07/03 03:36:19;;;;;;;9.33;8.38;;;;;;;17.60;76.05;97653.63;1492598;94;26071;-80
2022/07/03 03:38:48;;;;;;;8.65;7.85;;;;;;;17.60;75.95;97654.98;1508453;87;26010;-79
2022/07/03 03:41:15;;;;;;;8.53;7.80;;;;;;;17.61;75.93;97656.11;1648930;86;25804;-81
2022/07/03 03:43:41;;;;;;;8.50;7.70;;;;;;;17.60;75.81;97658.55;1676987;84;25712;-80
2022/07/03 03:46:08;;;;;;;8.18;7.47;;;;;;;17.55;75.75;97661.72;1674977;83;27418;-80
2022/07/03 03:48:35;;;;;;;8.58;7.75;;;;;;;17.55;75.75;97658.98;1677756;83;25779;-80
2022/07/03 03:51:03;;;;;;;8.45;7.65;;;;;;;17.57;75.77;97656.30;1679581;83;25790;-80
2022/07/03 03:53:29;;;;;;;8.68;7.87;;;;;;;17.60;75.77;97657.17;1655450;84;26338;-80
2022/07/03 03:56:07;;;;;;;8.10;7.40;;;;;;;17.63;75.81;97655.32;1677591;83;26016;-80
2022/07/03 03:58:37;;;;;;;10.15;8.63;;;;;;;17.67;75.80;97657.02;1679548;83;27450;-80
2022/07/03 04:01:06;;;;;;;9.75;8.75;;;;;;;17.74;75.71;97654.96;1678151;83;25799;-81
2022/07/03 04:03:34;;;;;;;10.13;9.05;;;;;;;17.80;75.61;97661.30;1676807;83;25929;-80
2022/07/03 04:06:01;;;;;;;10.63;9.53;;;;;;;17.83;75.49;97648.52;1677454;84;26666;-80
2022/07/03 04:08:30;;;;;;;9.60;8.70;;;;;;;17.88;75.39;97642.58;1678787;83;25936;-80
2022/07/03 04:10:57;;;;;;;8.78;7.87;;;;;;;17.91;75.42;97647.55;1752078;80;27388;-80
2022/07/03 04:13:24;;;;;;;10.15;9.08;;;;;;;17.94;75.51;97650.31;1776463;80;25274;-80
2022/07/03 04:15:53;;;;;;;9.08;8.28;;;;;;;18.00;75.54;97633.73;1765139;80;25818;-81
2022/07/03 04:18:20;;;;;;;10.18;8.65;;;;;;;18.04;75.50;97636.78;1776357;80;25796;-80
2022/07/03 04:20:47;;;;;;;10.75;9.68;;;;;;;18.09;75.51;97639.59;1768329;80;25665;-81
2022/07/03 04:23:13;;;;;;;12.18;9.63;;;;;;;18.11;75.30;97631.98;1772038;79;28145;-80
2022/07/03 04:25:40;;;;;;;10.28;8.55;;;;;;;18.12;75.31;97632.23;1782125;80;26348;-80
2022/07/03 04:28:06;;;;;;;9.95;8.75;;;;;;;18.17;75.26;97628.22;1772407;79;25698;-80
2022/07/03 04:30:33;;;;;;;10.90;9.70;;;;;;;18.21;75.21;97626.64;1776898;80;25690;-80
2022/07/03 04:33:00;;;;;;;13.30;9.55;;;;;;;18.23;75.10;97627.19;1781560;80;25793;-80
2022/07/03 04:35:26;;;;;;;11.38;10.20;;;;;;;18.27;75.04;97630.24;1776651;79;27421;-81
2022/07/03 04:37:53;;;;;;;11.80;10.70;;;;;;;18.29;74.88;97625.35;1768293;80;25667;-80
2022/07/03 04:40:20;;;;;;;10.60;9.60;;;;;;;18.30;74.75;97624.27;1770913;80;25426;-81
2022/07/03 04:42:46;;;;;;;10.93;9.43;;;;;;;18.33;74.71;97627.33;1772177;79;26368;-80
2022/07/03 04:45:13;;;;;;;11.12;9.95;;;;;;;18.36;74.65;97635.00;1775845;79;25468;-80
2022/07/03 04:47:39;;;;;;;10.90;9.78;;;;;;;18.42;74.61;97635.06;1776533;80;27370;-80
2022/07/03 04:50:07;;;;;;;10.40;9.33;;;;;;;18.47;74.45;97635.14;1774720;80;26295;-80
2022/07/03 04:52:34;;;;;;;10.03;9.13;;;;;;;18.54;74.49;97631.66;1777648;79;25300;-81
2022/07/03 04:55:00;;;;;;;9.95;8.68;;;;;;;18.60;74.45;97632.84;1778475;80;25739;-81
2022/07/03 04:57:28;;;;;;;10.30;9.20;;;;;;;18.65;74.40;97626.61;1773647;80;25743;-80
2022/07/03 04:59:54;;;;;;;10.05;9.03;;;;;;;18.69;74.33;97620.92;1778991;80;27445;-80
2022/07/03 05:02:21;;;;;;;11.43;9.50;;;;;;;18.69;73.97;97620.92;1772185;80;25786;-80
2022/07/03 05:04:47;;;;;;;13.62;9.58;;;;;;;18.71;73.85;97618.76;1777689;80;26644;-81
2022/07/03 05:07:14;;;;;;;10.72;9.38;;;;;;;18.73;73.66;97615.20;1773654;80;26393;-80
2022/07/03 05:09:40;;;;;;;10.53;8.55;;;;;;;18.73;73.49;97615.20;1774055;80;25812;-80
2022/07/03 05:12:07;;;;;;;10.55;8.40;;;;;;;18.77;73.51;97612.78;1771547;80;28367;-80
2022/07/03 05:14:34;;;;;;;9.13;8.23;;;;;;;18.81;73.43;97603.81;1776402;79;25219;-81
2022/07/03 05:17:01;;;;;;;10.03;9.03;;;;;;;18.86;73.21;97605.75;1769254;80;25738;-80
2022/07/03 05:19:27;;;;;;;9.10;8.30;;;;;;;18.89;73.16;97595.13;1782426;79;25896;-80
2022/07/03 05:21:54;;;;;;;8.60;7.80;;;;;;;18.95;73.02;97600.94;1780393;80;25686;-79
2022/07/03 05:24:21;;;;;;;9.28;8.43;;;;;;;18.99;72.94;97597.12;1771569;80;27167;-81
2022/07/03 05:26:47;;;;;;;8.93;8.03;;;;;;;19.04;72.76;97600.73;1768098;80;25715;-80
2022/07/03 05:29:14;;;;;;;9.23;8.33;;;;;;;19.06;72.67;97597.20;1779728;80;25798;-80
2022/07/03 05:31:40;;;;;;;9.00;8.20;;;;;;;19.08;72.65;97592.27;1773700;80;25755;-80
2022/07/03 05:34:08;;;;;;;8.70;7.87;;;;;;;19.14;72.51;97596.42;1776926;80;25294;-80
2022/07/03 05:36:34;;;;;;;10.45;8.45;;;;;;;19.18;72.42;97600.30;1778425;80;27380;-80
2022/07/03 05:41:46;;;;;;;10.85;7.37;;;;;;;19.26;72.16;97588.86;1776783;79;25810;-80
2022/07/03 05:44:12;;;;;;;9.80;7.25;;;;;;;19.29;72.10;97593.81;1778205;80;26553;-79
2022/07/03 05:46:39;;;;;;;7.85;7.15;;;;;;;19.29;71.96;97588.34;1774094;80;25373;-80
2022/07/03 05:49:06;;;;;;;8.73;6.15;;;;;;;19.28;71.92;97590.25;1770874;79;27451;-79
2022/07/03 05:51:32;;;;;;;7.15;6.40;;;;;;;19.32;71.85;97593.30;1782100;79;25809;-80
2022/07/03 05:53:59;;;;;;;6.70;6.03;;;;;;;19.36;71.70;97597.14;1775533;80;25733;-79
2022/07/03 05:56:25;;;;;;;6.28;5.70;;;;;;;19.40;71.68;97592.80;1772884;80;25581;-79
2022/07/03 05:58:52;;;;;;;6.85;6.20;;;;;;;19.44;71.52;97591.20;1771301;80;25851;-80
2022/07/03 06:01:18;;;;;;;7.00;6.30;;;;;;;19.49;71.41;97593.16;1770564;80;27442;-80
2022/07/03 06:03:45;;;;;;;8.90;6.35;;;;;;;19.51;71.31;97587.70;1778124;80;25669;-81
2022/07/03 06:06:12;;;;;;;6.62;6.03;;;;;;;19.50;71.14;97592.90;1777524;80;26329;-79
2022/07/03 06:08:38;;;;;;;6.30;5.70;;;;;;;19.51;71.11;97587.70;1772881;79;25781;-81
2022/07/03 06:11:05;;;;;;;6.65;5.47;;;;;;;19.55;70.98;97588.83;1775394;79;25682;-80
2022/07/03 06:13:31;;;;;;;6.67;6.08;;;;;;;19.58;71.01;97587.45;1768976;80;27362;-79
2022/07/03 06:15:58;;;;;;;8.18;6.00;;;;;;;19.60;70.80;97586.66;1773184;80;25854;-80
2022/07/03 06:18:25;;;;;;;6.45;5.85;;;;;;;19.62;70.63;97593.52;1777253;80;25732;-82
2022/07/03 06:20:51;;;;;;;6.75;6.05;;;;;;;19.63;70.67;97591.06;1773743;80;25784;-81
2022/07/03 06:23:18;;;;;;;6.42;5.83;;;;;;;19.63;70.58;97592.44;1772806;80;25801;-81
2022/07/03 06:25:44;;;;;;;6.33;5.72;;;;;;;19.63;70.52;97592.44;1782057;80;27414;-80
2022/07/03 06:28:11;;;;;;;6.75;5.95;;;;;;;19.67;70.55;97590.83;1771641;80;25748;-80
2022/07/03 06:30:37;;;;;;;6.55;5.33;;;;;;;19.71;70.47;97589.73;1773968;80;25244;-80
2022/07/03 06:33:04;;;;;;;6.78;6.08;;;;;;;19.77;70.47;97594.16;1774397;80;26291;-80
2022/07/03 06:35:31;;;;;;;6.67;6.08;;;;;;;19.87;70.30;97585.16;1780291;80;25879;-81
2022/07/03 06:38:03;;;;;;;6.83;6.20;;;;;;;19.96;70.23;97589.04;1770040;80;27456;-79
2022/07/03 06:40:29;;;;;;;;;;;;;;;20.06;70.37;97584.97;1777842;79;26259;-80
2022/07/03 06:42:56;;;;;;;6.70;5.42;;;;;;;20.19;70.38;97587.77;1780290;80;25920;-80
2022/07/03 06:45:23;;;;;;;8.03;6.42;;;;;;;20.25;70.41;97586.16;1772444;79;25741;-80
2022/07/03 06:47:49;;;;;;;7.75;6.83;;;;;;;20.32;70.36;97580.41;1776112;80;25771;-80
2022/07/03 06:50:16;;;;;;;8.45;6.33;;;;;;;20.40;70.37;97579.39;1770508;80;28114;-80
2022/07/03 06:52:42;;;;;;;6.55;5.95;;;;;;;20.48;70.22;97580.23;1777556;80;25849;-80
2022/07/03 06:55:09;;;;;;;9.30;6.08;;;;;;;20.56;69.89;97581.61;1775274;80;25801;-81
2022/07/03 06:57:36;;;;;;;6.28;5.67;;;;;;;20.66;70.09;97580.80;1774992;80;25686;-81
2022/07/03 07:00:04;;;;;;;6.70;6.10;;;;;;;20.75;69.86;97580.55;1773371;80;25655;-80
2022/07/03 07:02:31;;;;;;;6.22;5.72;;;;;;;20.87;69.89;97572.06;1771118;80;27453;-80
2022/07/03 07:04:58;;;;;;;7.25;6.47;;;;;;;20.98;69.87;97571.80;1772954;80;25666;-80
2022/07/03 07:07:24;;;;;;;6.60;6.00;;;;;;;21.07;69.73;97569.32;1769434;80;25280;-80
2022/07/03 07:09:51;;;;;;;6.80;6.10;;;;;;;21.11;68.83;97567.69;1779208;79;25875;-80
2022/07/03 07:12:18;;;;;;;6.75;6.15;;;;;;;21.15;68.77;97566.84;1780331;80;25775;-80
2022/07/03 07:14:44;;;;;;;8.83;6.62;;;;;;;21.28;69.05;97562.75;1770170;80;27476;-80
2022/07/03 07:17:11;;;;;;;6.40;5.80;;;;;;;21.35;68.45;97563.85;1769914;80;25687;-80
2022/07/03 07:19:37;;;;;;;8.58;6.17;;;;;;;21.39;68.12;97559.43;1782061;80;25816;-80
2022/07/03 07:22:04;;;;;;;8.08;6.03;;;;;;;21.42;67.92;97562.45;1778797;80;26737;-79
2022/07/03 07:24:31;;;;;;;8.63;6.53;;;;;;;21.45;67.60;97558.34;1773602;80;25680;-81
2022/07/03 07:26:57;;;;;;;6.47;5.87;;;;;;;21.43;67.88;97542.69;1777898;79;27383;-81
2022/07/03 07:29:24;;;;;;;6.78;6.05;;;;;;;21.62;67.73;97549.22;1777788;80;25791;-80
2022/07/03 07:31:50;;;;;;;6.90;6.30;;;;;;;21.75;67.54;97547.27;1771312;79;25722;-82
2022/07/03 07:34:17;;;;;;;7.47;6.78;;;;;;;21.89;67.13;97540.08;1773186;80;25683;-80
2022/07/03 07:36:43;;;;;;;7.70;6.37;;;;;;;22.03;66.88;97536.77;1768782;80;26032;-80
2022/07/03 07:39:10;;;;;;;7.37;6.33;;;;;;;22.10;66.43;97526.27;1776826;80;27381;-81
2022/07/03 07:41:38;;;;;;;7.42;6.35;;;;;;;22.26;66.43;97533.34;1769648;80;25458;-81
2022/07/03 07:44:05;;;;;;;7.78;7.05;;;;;;;22.38;65.85;97529.70;1768491;80;25759;-79
2022/07/03 07:46:32;;;;;;;7.72;6.83;;;;;;;22.48;65.56;97529.63;1769515;80;25720;-78
2022/07/03 07:48:58;;;;;;;6.92;6.12;;;;;;;22.58;64.73;97531.52;1772567;80;25854;-78
2022/07/03 07:51:25;;;;;;;7.92;6.53;;;;;;;22.67;64.19;97534.48;1768789;80;27418;-79
2022/07/03 07:53:56;;;;;;;7.05;6.30;;;;;;;22.81;63.77;97536.89;1776383;80;25784;-80
2022/07/03 07:56:20;;;;;;;7.87;6.17;;;;;;;22.92;63.27;97532.95;1771170;80;25376;-79
2022/07/03 07:58:46;;;;;;;7.72;6.17;;;;;;;23.03;62.77;97529.00;1778387;80;25848;-80
2022/07/03 08:06:46;;;;;;;6.85;6.25;;;;;;;23.91;62.39;97520.38;1769570;80;25722;-80
2022/07/03 08:09:13;;;;;;;6.40;5.80;;;;;;;24.20;61.75;97520.30;1774288;80;26666;-80
2022/07/03 08:11:39;;;;;;;7.37;5.72;;;;;;;24.40;61.43;97517.84;1773724;80;26313;-81
2022/07/03 08:14:07;;;;;;;6.30;5.60;;;;;;;24.86;60.29;97518.55;1777535;79;25686;-78
2022/07/03 08:16:35;;;;;;;7.15;5.87;;;;;;;25.25;60.35;97525.91;1762293;80;27408;-78
2022/07/03 08:19:01;;;;;;;5.95;5.45;;;;;;;25.75;59.54;97524.73;1781808;79;25751;-80
2022/07/03 08:21:28;;;;;;;5.97;5.47;;;;;;;26.18;58.50;97518.34;1776737;79;25709;-81
2022/07/03 08:23:55;;;;;;;5.83;5.33;;;;;;;26.57;57.52;97515.59;1767105;79;25774;-81
2022/07/03 08:26:22;;;;;;;5.60;5.10;;;;;;;26.93;57.01;97519.75;1773510;79;25768;-81
2022/07/03 08:28:48;;;;;;;5.22;4.83;;;;;;;27.20;56.22;97514.87;1761008;79;27447;-78
2022/07/03 08:31:15;;;;;;;5.12;4.72;;;;;;;27.56;55.55;97518.94;1779691;79;25749;-79
2022/07/03 08:33:41;;;;;;;5.95;5.35;;;;;;;27.86;54.52;97513.70;1778652;79;25720;-80
2022/07/03 08:36:08;;;;;;;5.55;5.05;;;;;;;27.97;53.52;97510.89;1774621;80;26699;-80
2022/07/03 08:38:35;;;;;;;5.67;5.05;;;;;;;28.05;52.92;97510.66;1766108;79;25756;-80
2022/07/03 08:41:04;;;;;;;5.95;5.45;;;;;;;28.25;52.74;97512.31;1769937;80;27369;-80
2022/07/03 08:43:30;;;;;;;5.30;4.90;;;;;;;28.63;53.04;97501.97;1774791;80;25892;-81
2022/07/03 08:46:00;;;;;;;5.35;4.85;;;;;;;29.03;52.80;97506.25;1778112;79;25836;-82
2022/07/03 08:48:29;;;;;;;6.30;5.35;;;;;;;29.43;51.98;97507.44;1771748;80;25653;-82
2022/07/03 08:50:59;;;;;;;6.92;5.80;;;;;;;29.72;51.43;97508.88;1779108;79;25696;-81
2022/07/03 08:53:25;;;;;;;7.15;5.30;;;;;;;30.02;50.46;97500.61;1773067;79;27424;-80
2022/07/03 08:55:52;;;;;;;5.95;5.35;;;;;;;30.33;50.50;97503.86;1768316;80;25698;-81
2022/07/03 08:58:22;;;;;;;5.30;4.85;;;;;;;30.69;49.79;97489.38;1771976;80;25947;-80
2022/07/03 09:00:49;;;;;;;5.80;5.30;;;;;;;30.95;49.24;97491.95;1773172;80;25981;-79
2022/07/03 09:03:17;;;;;;;6.15;5.55;;;;;;;31.18;48.41;97492.99;1770227;80;25734;-78
2022/07/03 09:05:43;;;;;;;6.00;5.40;;;;;;;31.38;47.43;97499.13;1778129;79;27611;-80
2022/07/03 09:08:10;;;;;;;5.67;5.17;;;;;;;31.53;47.02;97492.86;1775728;80;26146;-80
2022/07/03 09:10:37;;;;;;;5.17;4.78;;;;;;;31.73;46.48;97485.04;1768437;80;25753;-80
2022/07/03 09:13:03;;;;;;;4.70;4.40;;;;;;;31.91;46.11;97489.80;1769590;80;25894;-81
2022/07/03 09:15:30;;;;;;;5.20;4.47;;;;;;;32.12;45.15;97484.13;1775937;80;25641;-79
2022/07/03 09:18:06;;;;;;;5.58;4.97;;;;;;;32.11;44.20;97478.31;1768446;80;27468;-78
2022/07/03 09:20:39;;;;;;;4.72;4.37;;;;;;;32.26;43.78;97478.19;1761973;80;26270;-81
2022/07/03 09:23:12;;;;;;;5.08;4.67;;;;;;;32.42;43.17;97484.70;1771093;80;25786;-81
2022/07/03 09:25:59;;;;;;;5.15;4.75;;;;;;;32.46;42.47;97481.44;1771667;80;25740;-81
2022/07/03 09:28:45;;;;;;;4.95;4.55;;;;;;;32.37;42.10;97473.17;1775932;79;25935;-81
2022/07/03 09:31:14;;;;;;;5.33;4.92;;;;;;;32.44;42.26;97477.59;1772884;80;26848;-81
2022/07/03 09:34:02;;;;;;;4.87;4.58;;;;;;;32.62;42.17;97471.72;1769791;80;25690;-80
2022/07/03 09:36:47;;;;;;;4.97;4.60;;;;;;;32.67;41.55;97468.69;1771782;80;25701;-81
2022/07/03 09:39:24;;;;;;;4.95;4.55;;;;;;;32.84;41.41;97464.25;1713652;81;25909;-81
2022/07/03 09:42:12;;;;;;;4.83;4.42;;;;;;;32.94;41.66;97472.13;1729003;82;25853;-81
2022/07/03 09:44:41;;;;;;;5.00;4.60;;;;;;;32.91;40.64;97466.66;1709032;83;27605;-80
2022/07/03 09:47:22;;;;;;;5.30;4.90;;;;;;;32.65;40.76;97464.03;1713262;83;25729;-81
2022/07/03 09:50:04;;;;;;;5.97;5.22;;;;;;;32.66;40.10;97458.68;1709064;83;25834;-81
2022/07/03 09:52:43;;;;;;;5.45;4.33;;;;;;;32.71;40.09;97458.44;1685057;84;25803;-81
2022/07/03 09:55:14;;;;;;;5.08;4.67;;;;;;;32.83;40.07;97458.44;1680448;84;26071;-81
2022/07/03 09:57:55;;;;;;;7.03;5.10;;;;;;;32.83;39.82;97454.23;1679130;84;27409;-81
2022/07/03 10:00:25;;;;;;;5.30;4.83;;;;;;;32.91;39.54;97458.86;1682210;84;25964;-81
2022/07/03 10:03:03;;;;;;;4.90;4.50;;;;;;;33.00;39.63;97457.30;1677836;84;25898;-81
2022/07/03 10:05:39;;;;;;;5.22;4.70;;;;;;;33.06;39.29;97450.30;1681720;84;26502;-79
2022/07/03 10:08:12;;;;;;;5.22;4.72;;;;;;;32.82;39.16;97455.41;1655301;86;25955;-80
2022/07/03 10:10:45;;;;;;;4.90;4.50;;;;;;;32.52;38.67;97452.89;1649310;86;27383;-78
2022/07/03 10:13:13;;;;;;;5.20;4.53;;;;;;;32.53;39.27;97453.70;1645964;86;25800;-79
2022/07/03 10:15:41;;;;;;;5.33;4.70;;;;;;;32.54;39.37;97451.96;1632017;86;25776;-78
2022/07/03 10:18:13;;;;;;;5.25;4.40;;;;;;;32.64;39.00;97444.24;1652749;86;26770;-80
2022/07/03 10:20:48;;;;;;;5.00;4.60;;;;;;;32.36;38.91;97440.84;1654480;86;25325;-78
2022/07/03 10:23:22;;;;;;;6.00;5.45;;;;;;;32.43;38.81;97441.05;1635408;86;27418;-79
2022/07/03 10:25:49;;;;;;;5.22;4.83;;;;;;;32.50;38.88;97435.66;1633794;86;25801;-79
2022/07/03 10:28:18;;;;;;;4.95;4.53;;;;;;;32.49;39.19;97436.83;1646671;86;26005;-78
2022/07/03 10:30:47;;;;;;;4.75;4.35;;;;;;;32.33;39.16;97440.14;1629810;86;27247;-78
2022/07/03 10:33:14;;;;;;;5.20;4.70;;;;;;;32.36;39.27;97436.66;1660944;84;25790;-79
2022/07/03 10:35:51;;;;;;;5.30;4.80;;;;;;;32.51;39.05;97425.30;1686515;83;28444;-77
2022/07/03 10:38:40;;;;;;;5.17;4.70;;;;;;;32.61;39.09;97423.41;1687685;83;25802;-78
2022/07/03 10:47:05;;;;;;;4.70;4.40;;;;;;;32.90;37.54;97419.48;1694438;83;25891;-78
2022/07/03 10:49:32;;;;;;;5.33;4.85;;;;;;;32.75;36.78;97409.06;1681868;84;28285;-77
2022/07/03 10:52:02;;;;;;;5.30;4.90;;;;;;;32.71;36.92;97413.17;1686469;84;25772;-78
2022/07/03 10:57:10;;;;;;;16.80;5.33;;;;;;;32.90;36.41;97409.13;1588496;88;25825;-78
2022/07/03 10:59:43;;;;;;;5.33;4.78;;;;;;;33.06;36.39;97400.77;1583474;88;25901;-78
2022/07/03 11:02:40;;;;;;;5.47;5.08;;;;;;;33.24;36.33;97402.08;1579190;89;26982;-77
2022/07/03 11:05:21;;;;;;;6.47;5.00;;;;;;;33.32;36.36;97398.09;1545111;92;25890;-77
2022/07/03 11:07:56;;;;;;;4.72;4.37;;;;;;;33.31;35.88;97395.06;1508417;94;32543;-76
2022/07/03 11:10:28;;;;;;;5.97;4.58;;;;;;;33.16;35.79;97389.64;1506432;94;25913;-77
2022/07/03 11:13:16;;;;;;;6.17;5.00;;;;;;;33.16;35.66;97387.66;1510850;94;26008;-78
2022/07/03 11:15:52;;;;;;;5.70;4.78;;;;;;;33.29;35.42;97386.22;1520260;93;27466;-78
2022/07/03 11:18:29;;;;;;;5.58;5.08;;;;;;;33.38;35.97;97381.25;1527895;93;25999;-77
2022/07/03 11:21:25;;;;;;;8.73;5.30;;;;;;;33.49;35.91;97383.73;1524701;93;25814;-78
2022/07/03 11:24:03;;;;;;;5.75;4.35;;;;;;;33.38;36.02;97377.87;1470095;96;26754;-76
2022/07/03 11:26:30;;;;;;;6.67;4.67;;;;;;;33.44;35.91;97382.62;1472782;96;26025;-78
2022/07/03 11:28:56;;;;;;;5.37;4.97;;;;;;;33.58;35.64;97381.55;1475174;96;28326;-78
2022/07/03 11:31:25;;;;;;;5.30;4.80;;;;;;;33.36;36.03;97371.00;1463183;96;25669;-77
2022/07/03 11:33:58;;;;;;;5.67;5.15;;;;;;;33.26;37.07;97374.56;1464191;96;25873;-78
2022/07/03 11:36:31;;;;;;;4.87;4.45;;;;;;;33.35;37.18;97377.77;1472551;95;26870;-78
2022/07/03 11:39:06;;;;;;;5.58;5.08;;;;;;;33.40;37.27;97375.52;1477648;96;26187;-77
2022/07/03 11:41:41;;;;;;;5.17;4.75;;;;;;;33.47;36.90;97383.27;1477345;96;27533;-78
2022/07/03 11:44:10;;;;;;;4.80;4.50;;;;;;;33.46;36.83;97374.66;1480049;96;25914;-78
2022/07/03 11:46:39;;;;;;;5.33;4.92;;;;;;;33.46;36.13;97374.66;1479502;96;26015;-79
2022/07/03 11:49:21;;;;;;;7.20;5.28;;;;;;;33.39;36.11;97374.48;1479597;95;25939;-77
2022/07/03 11:52:02;;;;;;;5.58;4.90;;;;;;;33.41;36.14;97375.75;1481968;96;25992;-78
2022/07/03 11:54:51;;;;;;;6.97;4.83;;;;;;;33.13;36.36;97370.78;1563964;89;27511;-77
2022/07/03 11:57:18;;;;;;;5.75;5.15;;;;;;;33.03;35.57;97369.91;1601522;89;25740;-78
2022/07/03 11:59:44;;;;;;;5.22;4.83;;;;;;;32.97;35.96;97369.34;1603522;89;25847;-78
2022/07/03 12:02:11;;;;;;;5.45;4.80;;;;;;;32.95;35.59;97366.13;1602394;89;25732;-78
2022/07/03 12:04:39;;;;;;;5.40;5.00;;;;;;;32.90;35.63;97365.79;1643253;84;25743;-77
2022/07/03 12:07:05;;;;;;;5.60;5.10;;;;;;;32.84;35.74;97360.24;1685448;84;27371;-77
2022/07/03 12:09:35;;;;;;;5.58;5.10;;;;;;;32.94;36.05;97358.09;1685780;84;26497;-76